sensor_id;sensor_type;location;lat;lon;timestamp;pressure;altitude;pressure_sealevel;temperature;humidity
41140;BME280;26881;48.784;9.192;2023-03-04T00:04:17;99155.13;;;4.99;65.43
41140;BME280;26881;48.784;9.192;2023-03-04T00:09:39;99158.41;;;5.06;64.76
41140;BME280;26881;48.784;9.192;2023-03-04T00:15:01;99159.16;;;5.10;63.95
41140;BME280;26881;48.784;9.192;2023-03-04T00:20:23;99158.81;;;4.91;64.08
41140;BME280;26881;48.784;9.192;2023-03-04T00:25:45;99163.25;;;4.85;64.78
41140;BME280;26881;48.784;9.192;2023-03-04T00:31:07;99158.53;;;5.01;63.89
41140;BME280;26881;48.784;9.192;2023-03-04T00:36:29;99159.94;;;5.13;62.97
41140;BME280;26881;48.784;9.192;2023-03-04T00:41:51;99164.22;;;4.47;65.22
41140;BME280;26881;48.784;9.192;2023-03-04T00:47:13;99163.59;;;4.73;64.83
41140;BME280;26881;48.784;9.192;2023-03-04T00:52:34;99159.53;;;4.61;65.20
41140;BME280;26881;48.784;9.192;2023-03-04T00:57:56;99156.28;;;4.55;65.05
41140;BME280;26881;48.784;9.192;2023-03-04T01:03:18;99156.19;;;4.58;64.94
41140;BME280;26881;48.784;9.192;2023-03-04T01:08:40;99156.78;;;4.33;65.93
41140;BME280;26881;48.784;9.192;2023-03-04T01:14:01;99153.53;;;4.61;64.90
41140;BME280;26881;48.784;9.192;2023-03-04T01:19:23;99148.34;;;4.27;65.81
41140;BME280;26881;48.784;9.192;2023-03-04T01:24:45;99150.66;;;4.37;65.74
41140;BME280;26881;48.784;9.192;2023-03-04T01:30:07;99144.84;;;4.28;66.00
41140;BME280;26881;48.784;9.192;2023-03-04T01:35:29;99145.00;;;4.21;65.85
41140;BME280;26881;48.784;9.192;2023-03-04T01:40:51;99140.50;;;4.30;65.29
41140;BME280;26881;48.784;9.192;2023-03-04T01:46:14;99137.28;;;4.20;64.99
41140;BME280;26881;48.784;9.192;2023-03-04T01:51:37;99137.91;;;4.30;64.60
41140;BME280;26881;48.784;9.192;2023-03-04T01:56:59;99138.56;;;4.02;65.54
41140;BME280;26881;48.784;9.192;2023-03-04T02:02:21;99139.81;;;3.84;66.47
41140;BME280;26881;48.784;9.192;2023-03-04T02:07:43;99140.34;;;3.61;67.22
41140;BME280;26881;48.784;9.192;2023-03-04T02:13:05;99133.47;;;3.60;67.26
41140;BME280;26881;48.784;9.192;2023-03-04T02:18:27;99128.94;;;3.70;67.27
41140;BME280;26881;48.784;9.192;2023-03-04T02:23:57;99131.75;;;3.98;66.48
41140;BME280;26881;48.784;9.192;2023-03-04T02:29:21;99129.13;;;3.62;67.38
41140;BME280;26881;48.784;9.192;2023-03-04T02:34:48;99132.75;;;3.53;67.51
41140;BME280;26881;48.784;9.192;2023-03-04T02:40:24;99127.47;;;3.59;67.67
41140;BME280;26881;48.784;9.192;2023-03-04T02:45:49;99131.09;;;3.09;68.94
41140;BME280;26881;48.784;9.192;2023-03-04T02:51:11;99134.13;;;3.29;68.65
41140;BME280;26881;48.784;9.192;2023-03-04T02:56:32;99135.78;;;3.32;67.96
41140;BME280;26881;48.784;9.192;2023-03-04T03:01:54;99134.94;;;3.31;68.65
41140;BME280;26881;48.784;9.192;2023-03-04T03:07:16;99137.28;;;3.00;69.74
41140;BME280;26881;48.784;9.192;2023-03-04T03:12:38;99139.09;;;2.97;69.91
41140;BME280;26881;48.784;9.192;2023-03-04T03:17:59;99135.03;;;2.82;70.51
41140;BME280;26881;48.784;9.192;2023-03-04T03:23:21;99136.75;;;2.83;70.20
41140;BME280;26881;48.784;9.192;2023-03-04T03:28:43;99136.75;;;2.83;70.15
41140;BME280;26881;48.784;9.192;2023-03-04T03:34:05;99133.25;;;2.87;70.56
41140;BME280;26881;48.784;9.192;2023-03-04T03:39:26;99128.19;;;2.79;70.52
41140;BME280;26881;48.784;9.192;2023-03-04T03:44:48;99129.84;;;2.83;70.35
41140;BME280;26881;48.784;9.192;2023-03-04T03:50:11;99127.69;;;2.60;71.61
41140;BME280;26881;48.784;9.192;2023-03-04T03:55:33;99124.16;;;2.66;71.55
41140;BME280;26881;48.784;9.192;2023-03-04T04:00:54;99129.72;;;2.43;71.91
41140;BME280;26881;48.784;9.192;2023-03-04T04:06:19;99128.94;;;2.38;72.18
41140;BME280;26881;48.784;9.192;2023-03-04T04:11:40;99132.84;;;2.09;73.50
41140;BME280;26881;48.784;9.192;2023-03-04T04:17:02;99143.16;;;2.09;73.24
41140;BME280;26881;48.784;9.192;2023-03-04T04:22:24;99131.91;;;2.15;73.92
41140;BME280;26881;48.784;9.192;2023-03-04T04:27:45;99145.75;;;2.10;73.53
41140;BME280;26881;48.784;9.192;2023-03-04T04:33:08;99137.22;;;2.04;74.07
41140;BME280;26881;48.784;9.192;2023-03-04T04:38:30;99137.47;;;1.88;74.11
41140;BME280;26881;48.784;9.192;2023-03-04T04:43:52;99149.38;;;1.96;74.37
41140;BME280;26881;48.784;9.192;2023-03-04T04:49:13;99144.00;;;2.09;73.61
41140;BME280;26881;48.784;9.192;2023-03-04T04:54:35;99151.81;;;2.08;73.67
41140;BME280;26881;48.784;9.192;2023-03-04T04:59:57;99151.66;;;2.17;73.57
41140;BME280;26881;48.784;9.192;2023-03-04T05:05:19;99141.66;;;1.96;73.30
41140;BME280;26881;48.784;9.192;2023-03-04T05:10:40;99142.13;;;2.21;73.20
41140;BME280;26881;48.784;9.192;2023-03-04T05:16:02;99160.38;;;2.08;73.70
41140;BME280;26881;48.784;9.192;2023-03-04T05:21:24;99161.16;;;2.14;73.09
41140;BME280;26881;48.784;9.192;2023-03-04T05:26:46;99166.78;;;1.84;74.56
41140;BME280;26881;48.784;9.192;2023-03-04T05:32:08;99165.66;;;2.01;73.70
41140;BME280;26881;48.784;9.192;2023-03-04T05:37:29;99171.56;;;2.07;73.56
41140;BME280;26881;48.784;9.192;2023-03-04T05:42:51;99171.88;;;1.86;74.51
41140;BME280;26881;48.784;9.192;2023-03-04T05:48:13;99172.84;;;1.80;74.72
41140;BME280;26881;48.784;9.192;2023-03-04T05:53:35;99178.72;;;1.88;74.59
41140;BME280;26881;48.784;9.192;2023-03-04T05:58:57;99181.09;;;2.05;75.15
41140;BME280;26881;48.784;9.192;2023-03-04T06:04:19;99183.47;;;2.18;73.50
41140;BME280;26881;48.784;9.192;2023-03-04T06:09:41;99186.47;;;1.88;73.89
41140;BME280;26881;48.784;9.192;2023-03-04T06:15:06;99188.31;;;1.80;76.09
41140;BME280;26881;48.784;9.192;2023-03-04T06:20:30;99188.56;;;2.22;73.71
41140;BME280;26881;48.784;9.192;2023-03-04T06:25:55;99195.59;;;2.11;74.23
41140;BME280;26881;48.784;9.192;2023-03-04T06:31:17;99206.13;;;1.97;74.60
41140;BME280;26881;48.784;9.192;2023-03-04T06:36:39;99216.94;;;2.24;73.25
41140;BME280;26881;48.784;9.192;2023-03-04T06:42:00;99223.09;;;2.15;73.79
41140;BME280;26881;48.784;9.192;2023-03-04T06:47:22;99215.47;;;2.06;73.76
41140;BME280;26881;48.784;9.192;2023-03-04T06:52:44;99227.41;;;2.15;nan
41140;BME280;26881;48.784;9.192;2023-03-04T06:58:06;99232.38;;;2.25;74.05
41140;BME280;26881;48.784;9.192;2023-03-04T07:03:27;99237.22;;;2.47;73.02
41140;BME280;26881;48.784;9.192;2023-03-04T07:08:50;99241.59;;;2.43;72.53
41140;BME280;26881;48.784;9.192;2023-03-04T07:14:11;99249.94;;;2.59;72.65
41140;BME280;26881;48.784;9.192;2023-03-04T07:19:33;99247.59;;;2.42;73.70
41140;BME280;26881;48.784;9.192;2023-03-04T07:24:55;99252.00;;;2.37;73.13
41140;BME280;26881;48.784;9.192;2023-03-04T07:30:17;99258.75;;;2.47;72.46
41140;BME280;26881;48.784;9.192;2023-03-04T07:35:39;99262.38;;;2.34;73.00
41140;BME280;26881;48.784;9.192;2023-03-04T07:41:01;99259.84;;;2.29;73.71
41140;BME280;26881;48.784;9.192;2023-03-04T07:46:23;99263.34;;;2.25;73.74
41140;BME280;26881;48.784;9.192;2023-03-04T07:51:45;99277.03;;;2.32;74.02
41140;BME280;26881;48.784;9.192;2023-03-04T07:57:06;99280.75;;;2.09;74.47
41140;BME280;26881;48.784;9.192;2023-03-04T08:02:28;99292.69;;;2.20;74.73
41140;BME280;26881;48.784;9.192;2023-03-04T08:07:50;99288.38;;;2.22;74.09
41140;BME280;26881;48.784;9.192;2023-03-04T08:13:11;99296.25;;;2.11;75.10
41140;BME280;26881;48.784;9.192;2023-03-04T08:18:33;99295.28;;;2.20;74.98
41140;BME280;26881;48.784;9.192;2023-03-04T08:23:57;99292.59;;;2.26;74.98
41140;BME280;26881;48.784;9.192;2023-03-04T08:29:22;99302.91;;;2.27;74.50
41140;BME280;26881;48.784;9.192;2023-03-04T08:34:44;99301.78;;;2.45;73.97
41140;BME280;26881;48.784;9.192;2023-03-04T08:40:06;99300.50;;;2.14;75.09
41140;BME280;26881;48.784;9.192;2023-03-04T08:45:28;99301.59;;;2.58;73.67
41140;BME280;26881;48.784;9.192;2023-03-04T08:50:50;99306.44;;;2.79;73.32
41140;BME280;26881;48.784;9.192;2023-03-04T08:56:12;99307.28;;;2.80;72.65
41140;BME280;26881;48.784;9.192;2023-03-04T09:01:34;99301.59;;;2.59;73.21
41140;BME280;26881;48.784;9.192;2023-03-04T09:06:56;99309.34;;;2.59;73.44
41140;BME280;26881;48.784;9.192;2023-03-04T09:12:18;99316.13;;;2.65;73.94
41140;BME280;26881;48.784;9.192;2023-03-04T09:17:40;99317.91;;;2.61;73.29
41140;BME280;26881;48.784;9.192;2023-03-04T09:23:02;99314.25;;;2.74;72.82
41140;BME280;26881;48.784;9.192;2023-03-04T09:28:23;99312.50;;;2.78;72.29
41140;BME280;26881;48.784;9.192;2023-03-04T09:33:45;99315.56;;;3.00;71.41
41140;BME280;26881;48.784;9.192;2023-03-04T09:39:07;99312.59;;;3.25;69.74
41140;BME280;26881;48.784;9.192;2023-03-04T09:44:42;99317.28;;;3.01;69.90
41140;BME280;26881;48.784;9.192;2023-03-04T09:50:10;99314.72;;;3.00;70.25
41140;BME280;26881;48.784;9.192;2023-03-04T09:55:36;99315.63;;;2.97;69.56
41140;BME280;26881;48.784;9.192;2023-03-04T10:06:26;99306.59;;;3.23;68.52
41140;BME280;26881;48.784;9.192;2023-03-04T10:12:01;99308.13;;;3.33;67.65
41140;BME280;26881;48.784;9.192;2023-03-04T10:17:34;99298.25;;;3.55;66.03
41140;BME280;26881;48.784;9.192;2023-03-04T10:23:09;99302.31;;;3.20;66.70
41140;BME280;26881;48.784;9.192;2023-03-04T10:28:32;99297.41;;;3.53;66.33
41140;BME280;26881;48.784;9.192;2023-03-04T10:33:55;99298.16;;;3.59;65.72
41140;BME280;26881;48.784;9.192;2023-03-04T10:39:20;99288.69;;;3.58;65.19
41140;BME280;26881;48.784;9.192;2023-03-04T10:45:03;99283.81;;;3.87;64.38
41140;BME280;26881;48.784;9.192;2023-03-04T10:50:39;99289.53;;;4.03;63.62
41140;BME280;26881;48.784;9.192;2023-03-04T10:56:01;99284.81;;;3.81;63.96
41140;BME280;26881;48.784;9.192;2023-03-04T11:01:23;99266.97;;;3.67;63.88
41140;BME280;26881;48.784;9.192;2023-03-04T11:06:45;99261.41;;;3.87;63.83
41140;BME280;26881;48.784;9.192;2023-03-04T11:12:13;99259.78;;;4.22;62.98
41140;BME280;26881;48.784;9.192;2023-03-04T11:17:43;99247.59;;;4.27;62.04
41140;BME280;26881;48.784;9.192;2023-03-04T11:23:32;99259.78;;;4.22;62.82
41140;BME280;26881;48.784;9.192;2023-03-04T11:29:04;99248.00;;;4.09;62.56
41140;BME280;26881;48.784;9.192;2023-03-04T11:34:35;99251.44;;;4.08;62.82
41140;BME280;26881;48.784;9.192;2023-03-04T11:40:03;99243.56;;;4.14;62.53
41140;BME280;26881;48.784;9.192;2023-03-04T11:45:49;99237.34;;;4.22;62.10
41140;BME280;26881;48.784;9.192;2023-03-04T11:56:46;99226.44;;;4.08;62.24
41140;BME280;26881;48.784;9.192;2023-03-04T12:02:11;99235.16;;;4.43;61.58
41140;BME280;26881;48.784;9.192;2023-03-04T12:07:55;99216.34;;;4.33;61.35
41140;BME280;26881;48.784;9.192;2023-03-04T12:13:33;99210.31;;;4.34;61.33
41140;BME280;26881;48.784;9.192;2023-03-04T12:30:33;99194.31;;;4.53;60.42
41140;BME280;26881;48.784;9.192;2023-03-04T12:36:20;99182.00;;;4.62;61.14
41140;BME280;26881;48.784;9.192;2023-03-04T12:47:46;99169.97;;;4.24;62.00
41140;BME280;26881;48.784;9.192;2023-03-04T12:58:53;99162.78;;;4.35;62.30
41140;BME280;26881;48.784;9.192;2023-03-04T13:04:22;99156.75;;;4.36;62.26
41140;BME280;26881;48.784;9.192;2023-03-04T13:09:56;99155.25;;;4.26;61.88
41140;BME280;26881;48.784;9.192;2023-03-04T13:15:26;99153.53;;;4.27;62.20
41140;BME280;26881;48.784;9.192;2023-03-04T13:21:05;99156.00;;;4.31;62.27
41140;BME280;26881;48.784;9.192;2023-03-04T13:26:32;99154.97;;;4.38;61.36
41140;BME280;26881;48.784;9.192;2023-03-04T13:32:09;99164.56;;;4.33;61.80
41140;BME280;26881;48.784;9.192;2023-03-04T13:37:33;99148.59;;;4.16;61.66
41140;BME280;26881;48.784;9.192;2023-03-04T13:43:25;99148.38;;;4.25;61.10
41140;BME280;26881;48.784;9.192;2023-03-04T13:59:45;99152.66;;;4.26;60.52
41140;BME280;26881;48.784;9.192;2023-03-04T14:05:10;99153.78;;;4.14;60.74
41140;BME280;26881;48.784;9.192;2023-03-04T14:10:32;99145.69;;;4.30;60.77
41140;BME280;26881;48.784;9.192;2023-03-04T14:15:55;99148.47;;;4.56;59.99
41140;BME280;26881;48.784;9.192;2023-03-04T14:21:18;99145.84;;;4.58;59.72
41140;BME280;26881;48.784;9.192;2023-03-04T14:26:39;99135.13;;;4.37;59.53
41140;BME280;26881;48.784;9.192;2023-03-04T14:32:03;99131.00;;;4.29;60.13
41140;BME280;26881;48.784;9.192;2023-03-04T14:37:36;99132.63;;;4.34;59.73
41140;BME280;26881;48.784;9.192;2023-03-04T14:48:35;99109.63;;;4.22;59.89
41140;BME280;26881;48.784;9.192;2023-03-04T14:53:57;99121.44;;;4.32;60.13
41140;BME280;26881;48.784;9.192;2023-03-04T14:59:34;99113.09;;;4.21;60.94
41140;BME280;26881;48.784;9.192;2023-03-04T15:05:10;99113.41;;;4.09;61.64
41140;BME280;26881;48.784;9.192;2023-03-04T15:10:38;99111.31;;;4.23;61.32
41140;BME280;26881;48.784;9.192;2023-03-04T15:16:00;99110.00;;;4.07;61.71
41140;BME280;26881;48.784;9.192;2023-03-04T15:21:38;99109.91;;;4.10;61.54
41140;BME280;26881;48.784;9.192;2023-03-04T15:27:01;99103.53;;;4.23;61.36
41140;BME280;26881;48.784;9.192;2023-03-04T15:32:28;99099.22;;;4.23;61.35
41140;BME280;26881;48.784;9.192;2023-03-04T15:37:50;99098.38;;;4.23;61.61
41140;BME280;26881;48.784;9.192;2023-03-04T15:43:18;99094.31;;;4.13;61.46
41140;BME280;26881;48.784;9.192;2023-03-04T15:48:40;99095.38;;;4.04;62.24
41140;BME280;26881;48.784;9.192;2023-03-04T15:54:02;99090.22;;;4.04;62.93
41140;BME280;26881;48.784;9.192;2023-03-04T15:59:24;99091.09;;;4.37;61.58
41140;BME280;26881;48.784;9.192;2023-03-04T16:04:46;99087.59;;;4.06;63.36
41140;BME280;26881;48.784;9.192;2023-03-04T16:15:43;99090.69;;;4.20;63.25
41140;BME280;26881;48.784;9.192;2023-03-04T16:21:05;99087.91;;;3.92;63.19
41140;BME280;26881;48.784;9.192;2023-03-04T16:26:29;99097.78;;;4.12;63.14
41140;BME280;26881;48.784;9.192;2023-03-04T16:31:53;99095.25;;;4.10;63.36
41140;BME280;26881;48.784;9.192;2023-03-04T16:37:18;99093.03;;;3.93;63.55
41140;BME280;26881;48.784;9.192;2023-03-04T16:42:40;99093.41;;;4.14;63.67
41140;BME280;26881;48.784;9.192;2023-03-04T16:48:02;99091.66;;;4.16;63.83
41140;BME280;26881;48.784;9.192;2023-03-04T16:53:34;99093.09;;;4.26;63.49
41140;BME280;26881;48.784;9.192;2023-03-04T16:58:57;99095.88;;;4.20;63.78
41140;BME280;26881;48.784;9.192;2023-03-04T17:04:21;99101.66;;;4.30;64.26
41140;BME280;26881;48.784;9.192;2023-03-04T17:09:42;99102.81;;;4.18;64.61
41140;BME280;26881;48.784;9.192;2023-03-04T17:15:05;99100.72;;;4.32;64.48
41140;BME280;26881;48.784;9.192;2023-03-04T17:20:27;99098.97;;;4.34;64.22
41140;BME280;26881;48.784;9.192;2023-03-04T17:25:57;99098.03;;;4.37;63.78
41140;BME280;26881;48.784;9.192;2023-03-04T17:31:20;99098.94;;;3.98;64.54
41140;BME280;26881;48.784;9.192;2023-03-04T17:36:41;99112.50;;;4.10;65.09
41140;BME280;26881;48.784;9.192;2023-03-04T17:42:04;99115.06;;;4.10;65.01
41140;BME280;26881;48.784;9.192;2023-03-04T17:47:25;99112.47;;;4.11;64.49
41140;BME280;26881;48.784;9.192;2023-03-04T17:52:47;99111.31;;;4.23;64.85
41140;BME280;26881;48.784;9.192;2023-03-04T17:58:10;99108.94;;;4.14;64.79
41140;BME280;26881;48.784;9.192;2023-03-04T18:03:32;99106.94;;;4.25;64.71
41140;BME280;26881;48.784;9.192;2023-03-04T18:08:53;99105.06;;;4.32;64.82
41140;BME280;26881;48.784;9.192;2023-03-04T18:14:15;99110.16;;;4.35;64.85
41140;BME280;26881;48.784;9.192;2023-03-04T18:19:37;99101.66;;;4.30;64.67
41140;BME280;26881;48.784;9.192;2023-03-04T18:24:59;99090.59;;;4.23;65.18
41140;BME280;26881;48.784;9.192;2023-03-04T18:30:20;99097.13;;;4.38;64.46
41140;BME280;26881;48.784;9.192;2023-03-04T18:35:47;99083.44;;;4.33;64.38
41140;BME280;26881;48.784;9.192;2023-03-04T18:41:12;99079.53;;;4.16;64.85
41140;BME280;26881;48.784;9.192;2023-03-04T18:46:40;99081.88;;;4.27;65.17
41140;BME280;26881;48.784;9.192;2023-03-04T18:52:03;99087.53;;;4.07;65.05
41140;BME280;26881;48.784;9.192;2023-03-04T18:57:25;99081.31;;;4.14;65.28
41140;BME280;26881;48.784;9.192;2023-03-04T19:03:00;99073.63;;;4.11;65.64
41140;BME280;26881;48.784;9.192;2023-03-04T19:08:23;99075.84;;;4.27;65.22
41140;BME280;26881;48.784;9.192;2023-03-04T19:13:45;99081.78;;;4.30;65.07
41140;BME280;26881;48.784;9.192;2023-03-04T19:19:08;99075.75;;;4.30;65.14
41140;BME280;26881;48.784;9.192;2023-03-04T19:24:29;99081.03;;;4.27;65.07
41140;BME280;26881;48.784;9.192;2023-03-04T19:29:51;99072.38;;;4.28;65.48
41140;BME280;26881;48.784;9.192;2023-03-04T19:35:14;99067.81;;;4.36;65.25
41140;BME280;26881;48.784;9.192;2023-03-04T19:40:38;99070.13;;;4.48;64.69
41140;BME280;26881;48.784;9.192;2023-03-04T19:46:00;99061.09;;;4.61;64.23
41140;BME280;26881;48.784;9.192;2023-03-04T19:51:24;99057.59;;;4.64;64.21
41140;BME280;26881;48.784;9.192;2023-03-04T19:56:46;99054.63;;;4.78;63.46
41140;BME280;26881;48.784;9.192;2023-03-04T20:02:08;99058.91;;;4.79;63.57
41140;BME280;26881;48.784;9.192;2023-03-04T20:07:30;99049.63;;;4.72;63.34
41140;BME280;26881;48.784;9.192;2023-03-04T20:12:53;99051.53;;;4.65;63.56
41140;BME280;26881;48.784;9.192;2023-03-04T20:18:15;99064.38;;;4.68;64.14
41140;BME280;26881;48.784;9.192;2023-03-04T20:23:37;99062.66;;;4.69;64.41
41140;BME280;26881;48.784;9.192;2023-03-04T20:28:59;99055.25;;;4.55;64.72
41140;BME280;26881;48.784;9.192;2023-03-04T20:34:21;99056.78;;;4.62;64.20
41140;BME280;26881;48.784;9.192;2023-03-04T20:39:43;99045.53;;;4.63;64.55
41140;BME280;26881;48.784;9.192;2023-03-04T20:45:05;99047.88;;;4.72;64.09
41140;BME280;26881;48.784;9.192;2023-03-04T20:50:27;99035.38;;;4.55;64.43
41140;BME280;26881;48.784;9.192;2023-03-04T20:55:49;99029.34;;;4.55;64.92
41140;BME280;26881;48.784;9.192;2023-03-04T21:01:14;99028.97;;;4.69;63.87
41140;BME280;26881;48.784;9.192;2023-03-04T21:06:36;99019.47;;;4.69;64.10
41140;BME280;26881;48.784;9.192;2023-03-04T21:11:59;99021.38;;;4.62;64.10
41140;BME280;26881;48.784;9.192;2023-03-04T21:17:21;99023.84;;;4.67;63.51
41140;BME280;26881;48.784;9.192;2023-03-04T21:22:45;99027.94;;;4.74;63.62
41140;BME280;26881;48.784;9.192;2023-03-04T21:28:07;99015.84;;;4.75;63.33
41140;BME280;26881;48.784;9.192;2023-03-04T21:33:32;99022.22;;;4.63;64.09
41140;BME280;26881;48.784;9.192;2023-03-04T21:38:55;99005.97;;;4.56;63.77
41140;BME280;26881;48.784;9.192;2023-03-04T21:44:17;99009.38;;;4.58;64.86
41140;BME280;26881;48.784;9.192;2023-03-04T21:49:54;99003.25;;;4.61;63.88
41140;BME280;26881;48.784;9.192;2023-03-04T21:55:15;99003.78;;;4.74;63.92
41140;BME280;26881;48.784;9.192;2023-03-04T22:00:37;98996.75;;;4.77;63.85
41140;BME280;26881;48.784;9.192;2023-03-04T22:06:03;98993.28;;;4.78;62.93
41140;BME280;26881;48.784;9.192;2023-03-04T22:11:26;98986.03;;;4.60;63.84
41140;BME280;26881;48.784;9.192;2023-03-04T22:16:48;98985.69;;;4.72;63.53
41140;BME280;26881;48.784;9.192;2023-03-04T22:22:16;98985.19;;;4.59;64.01
41140;BME280;26881;48.784;9.192;2023-03-04T22:27:39;98977.38;;;4.61;64.52
41140;BME280;26881;48.784;9.192;2023-03-04T22:33:01;98981.53;;;4.67;64.58
41140;BME280;26881;48.784;9.192;2023-03-04T22:38:23;98972.25;;;4.59;64.83
41140;BME280;26881;48.784;9.192;2023-03-04T22:43:45;98963.06;;;4.48;65.46
41140;BME280;26881;48.784;9.192;2023-03-04T22:49:08;98954.19;;;4.56;65.11
41140;BME280;26881;48.784;9.192;2023-03-04T22:54:30;98953.03;;;4.67;64.41
41140;BME280;26881;48.784;9.192;2023-03-04T22:59:52;98954.50;;;4.75;63.51
41140;BME280;26881;48.784;9.192;2023-03-04T23:05:15;98963.66;;;4.57;64.86
41140;BME280;26881;48.784;9.192;2023-03-04T23:10:40;98955.13;;;4.54;64.79
41140;BME280;26881;48.784;9.192;2023-03-04T23:16:03;98962.00;;;4.55;64.70
41140;BME280;26881;48.784;9.192;2023-03-04T23:21:26;98949.69;;;4.32;65.14
41140;BME280;26881;48.784;9.192;2023-03-04T23:26:54;98942.41;;;4.46;64.93
41140;BME280;26881;48.784;9.192;2023-03-04T23:32:16;98947.06;;;4.33;65.57
41140;BME280;26881;48.784;9.192;2023-03-04T23:37:38;98947.84;;;4.37;65.25
41140;BME280;26881;48.784;9.192;2023-03-04T23:42:59;98946.28;;;4.31;65.55
41140;BME280;26881;48.784;9.192;2023-03-04T23:48:21;98945.13;;;4.41;65.48
41140;BME280;26881;48.784;9.192;2023-03-04T23:53:43;98934.84;;;4.38;65.41
41140;BME280;26881;48.784;9.192;2023-03-04T23:59:06;98941.63;;;4.42;65.67
